createdAt,value
2023-05-14T00:00:59.786Z,58.10
2023-05-14T00:06:05.208Z,53.85
2023-05-14T00:11:09.162Z,57.20
2023-05-14T00:16:12.206Z,66.18
2023-05-14T00:21:14.954Z,57.80
2023-05-14T00:26:17.672Z,54.00
2023-05-14T00:31:20.427Z,58.76
2023-05-14T00:36:23.131Z,59.63
2023-05-14T00:41:25.822Z,59.13
2023-05-14T00:46:28.743Z,70.84
2023-05-14T00:51:31.562Z,56.49
2023-05-14T00:56:35.305Z,56.67
2023-05-14T01:01:37.860Z,59.29
2023-05-14T01:07:10.846Z,66.61
2023-05-14T01:12:34.719Z,54.76
2023-05-14T01:17:45.232Z,56.75
2023-05-14T01:22:47.804Z,64.69
2023-05-14T01:28:02.125Z,57.64
2023-05-14T01:33:16.554Z,56.22
2023-05-14T01:38:21.590Z,59.70
2023-05-14T01:43:24.514Z,63.41
2023-05-14T01:48:27.211Z,55.56
2023-05-14T01:53:29.842Z,61.88
2023-05-14T01:58:32.412Z,64.77
2023-05-14T02:03:35.070Z,54.03
2023-05-14T02:08:37.676Z,57.04
2023-05-14T02:13:40.230Z,58.23
2023-05-14T02:18:42.862Z,63.06
2023-05-14T02:23:45.520Z,67.24
2023-05-14T02:28:48.244Z,54.75
2023-05-14T02:33:50.851Z,59.48
2023-05-14T02:38:53.443Z,65.77
2023-05-14T02:43:56.051Z,55.82
2023-05-14T02:48:58.988Z,58.38
2023-05-14T02:54:01.785Z,65.74
2023-05-14T02:59:04.811Z,57.28
2023-05-14T03:04:07.984Z,55.24
2023-05-14T03:09:10.791Z,58.99
2023-05-14T03:14:13.412Z,65.99
2023-05-14T03:19:16.030Z,54.57
2023-05-14T03:24:18.717Z,56.63
2023-05-14T03:29:21.332Z,56.60
2023-05-14T03:34:24.301Z,55.61
2023-05-14T03:39:26.897Z,53.95
2023-05-14T03:44:29.527Z,51.94
2023-05-14T03:49:32.108Z,49.62
2023-05-14T03:54:34.767Z,47.97
2023-05-14T03:59:37.365Z,46.54
2023-05-14T04:04:41.121Z,45.39
2023-05-14T04:09:43.882Z,43.84
2023-05-14T04:14:46.530Z,42.86
2023-05-14T04:19:49.121Z,41.07
2023-05-14T04:24:52.464Z,39.33
2023-05-14T04:29:55.051Z,37.24
2023-05-14T04:34:57.744Z,36.61
2023-05-14T04:40:00.406Z,38.17
2023-05-14T04:45:05.276Z,36.65
2023-05-14T04:50:09.834Z,33.97
2023-05-14T04:55:12.426Z,33.60
2023-05-14T05:00:17.432Z,32.88
2023-05-14T05:05:20.703Z,32.03
2023-05-14T05:10:24.133Z,30.53
2023-05-14T05:15:27.508Z,28.09
2023-05-14T05:20:30.142Z,27.80
2023-05-14T05:25:32.934Z,26.57
2023-05-14T05:30:35.841Z,26.87
2023-05-14T05:35:38.513Z,26.07
2023-05-14T05:40:41.265Z,25.63
2023-05-14T05:45:44.220Z,24.74
2023-05-14T05:50:49.697Z,24.68
2023-05-14T05:55:52.446Z,25.21
2023-05-14T06:00:55.625Z,24.11
2023-05-14T06:05:58.208Z,23.25
2023-05-14T06:11:00.767Z,23.66
2023-05-14T06:16:03.596Z,23.02
2023-05-14T06:21:06.506Z,23.22
2023-05-14T06:26:09.047Z,23.73
2023-05-14T06:31:11.733Z,22.46
2023-05-14T06:36:14.364Z,22.09
2023-05-14T06:41:17.109Z,22.27
2023-05-14T06:46:19.684Z,21.89
2023-05-14T06:51:22.239Z,21.48
2023-05-14T06:56:24.916Z,21.06
2023-05-14T07:01:27.617Z,21.14
2023-05-14T07:06:30.860Z,20.53
2023-05-14T07:11:33.912Z,19.59
2023-05-14T07:16:37.094Z,19.34
2023-05-14T07:21:39.803Z,18.26
2023-05-14T07:26:42.428Z,17.75
2023-05-14T07:31:45.278Z,18.70
2023-05-14T07:36:48.226Z,17.97
2023-05-14T07:41:51.434Z,18.17
2023-05-14T07:46:54.097Z,16.97
2023-05-14T07:51:56.773Z,15.76
2023-05-14T07:56:59.374Z,15.62
2023-05-14T08:02:02.265Z,15.62
2023-05-14T08:07:05.909Z,15.22
2023-05-14T08:12:08.890Z,15.07
2023-05-14T08:17:11.562Z,15.31
2023-05-14T08:22:14.317Z,15.50
2023-05-14T08:27:17.147Z,15.81
2023-05-14T08:32:23.327Z,16.33
2023-05-14T08:37:27.288Z,16.23
2023-05-14T08:42:31.393Z,15.79
2023-05-14T08:47:34.351Z,15.73
2023-05-14T08:52:37.937Z,15.54
2023-05-14T08:57:40.752Z,15.64
2023-05-14T09:02:46.551Z,16.36
2023-05-14T09:07:49.922Z,16.63
2023-05-14T09:12:52.569Z,16.48
2023-05-14T09:17:55.485Z,16.95
2023-05-14T09:23:02.732Z,16.08
2023-05-14T09:28:08.340Z,16.88
2023-05-14T09:33:11.114Z,16.96
2023-05-14T09:38:13.714Z,17.10
2023-05-14T09:43:16.315Z,16.78
2023-05-14T09:48:19.909Z,16.35
2023-05-14T09:53:22.724Z,16.53
2023-05-14T09:58:25.507Z,16.34
2023-05-14T10:03:30.964Z,16.27
2023-05-14T10:08:36.136Z,16.31
2023-05-14T10:13:46.316Z,16.62
2023-05-14T10:18:57.014Z,15.97
2023-05-14T10:24:00.710Z,16.18
2023-05-14T10:29:03.367Z,17.88
2023-05-14T10:34:38.515Z,18.77
2023-05-14T10:40:08.263Z,18.97
2023-05-14T10:45:13.874Z,19.03
2023-05-14T10:50:17.727Z,19.04
2023-05-14T10:55:21.778Z,19.12
2023-05-14T11:00:27.731Z,19.32
2023-05-14T11:05:31.692Z,19.68
2023-05-14T11:10:35.799Z,19.50
2023-05-14T11:15:45.426Z,19.64
2023-05-14T11:20:48.016Z,20.11
2023-05-14T11:25:53.185Z,19.92
2023-05-14T11:30:56.299Z,19.60
2023-05-14T11:35:58.885Z,20.16
2023-05-14T11:41:01.440Z,20.43
2023-05-14T11:46:04.439Z,20.75
2023-05-14T11:51:07.166Z,21.23
2023-05-14T11:56:10.097Z,24.14
2023-05-14T12:01:14.145Z,24.49
2023-05-14T12:06:18.188Z,24.08
2023-05-14T12:11:21.991Z,23.96
2023-05-14T12:16:32.572Z,23.26
2023-05-14T12:21:36.678Z,22.95
2023-05-14T12:26:48.512Z,21.90
2023-05-14T12:31:51.352Z,22.32
2023-05-14T12:36:54.129Z,22.66
2023-05-14T12:41:56.653Z,22.78
2023-05-14T12:46:59.344Z,23.37
2023-05-14T12:52:17.405Z,23.27
2023-05-14T12:57:25.484Z,23.63
2023-05-14T13:02:28.202Z,24.93
2023-05-14T13:07:31.646Z,24.09
2023-05-14T13:12:34.384Z,23.75
2023-05-14T13:17:37.153Z,23.63
2023-05-14T13:22:39.929Z,23.97
2023-05-14T13:27:42.534Z,23.86
2023-05-14T13:32:46.140Z,23.23
2023-05-14T13:37:48.783Z,22.62
2023-05-14T13:42:51.417Z,22.24
2023-05-14T13:47:53.984Z,22.24
2023-05-14T13:52:56.756Z,22.41
2023-05-14T13:58:02.376Z,22.63
2023-05-14T14:03:05.698Z,22.75
2023-05-14T14:08:22.771Z,22.76
2023-05-14T14:13:27.970Z,22.31
2023-05-14T14:18:30.672Z,22.53
2023-05-14T14:23:33.553Z,22.27
2023-05-14T14:28:36.351Z,22.08
2023-05-14T14:33:39.297Z,21.65
2023-05-14T14:38:41.971Z,21.69
2023-05-14T14:43:44.767Z,21.78
2023-05-14T14:48:47.414Z,21.61
2023-05-14T14:53:50.081Z,21.16
2023-05-14T14:58:52.708Z,20.72
2023-05-14T15:03:55.269Z,20.66
2023-05-14T15:08:57.854Z,20.59
2023-05-14T15:14:00.445Z,20.61
2023-05-14T15:19:03.088Z,20.39
2023-05-14T15:24:06.859Z,20.50
2023-05-14T15:29:09.471Z,20.86
2023-05-14T15:34:12.046Z,21.13
2023-05-14T15:39:14.753Z,21.18
2023-05-14T15:44:17.552Z,21.18
2023-05-14T15:49:20.346Z,21.17
2023-05-14T15:54:23.079Z,21.52
2023-05-14T15:59:25.700Z,21.74
2023-05-14T16:04:28.374Z,21.77
2023-05-14T16:09:32.124Z,22.01
2023-05-14T16:14:35.830Z,22.03
2023-05-14T16:19:39.732Z,22.20
2023-05-14T16:24:42.637Z,22.51
2023-05-14T16:29:45.492Z,22.77
2023-05-14T16:34:51.685Z,23.06
2023-05-14T16:39:54.978Z,23.31
2023-05-14T16:44:57.621Z,23.28
2023-05-14T16:50:00.224Z,23.39
2023-05-14T16:55:03.110Z,23.61
2023-05-14T17:00:07.815Z,23.77
2023-05-14T17:05:10.483Z,24.01
2023-05-14T17:10:13.158Z,24.50
2023-05-14T17:15:15.947Z,24.71
2023-05-14T17:20:18.804Z,24.84
2023-05-14T17:25:23.658Z,24.79
2023-05-14T17:30:26.604Z,24.92
2023-05-14T17:35:29.251Z,25.24
2023-05-14T17:40:31.963Z,25.58
2023-05-14T17:45:46.253Z,25.86
2023-05-14T17:50:55.635Z,26.45
2023-05-14T17:55:58.357Z,26.49
2023-05-14T18:01:02.373Z,26.48
2023-05-14T18:06:05.360Z,26.59
2023-05-14T18:11:08.022Z,26.75
2023-05-14T18:16:10.724Z,26.67
2023-05-14T18:21:13.490Z,27.16
2023-05-14T18:26:16.329Z,27.80
2023-05-14T18:31:19.020Z,28.36
2023-05-14T18:36:21.965Z,28.85
2023-05-14T18:41:24.893Z,28.85
2023-05-14T18:46:27.964Z,31.75
2023-05-14T18:51:30.816Z,32.22
2023-05-14T18:56:34.742Z,32.71
2023-05-14T19:01:37.341Z,32.93
2023-05-14T19:06:43.012Z,33.15
2023-05-14T19:11:45.630Z,33.54
2023-05-14T19:16:51.505Z,33.12
2023-05-14T19:21:54.352Z,32.11
2023-05-14T19:26:57.063Z,32.28
2023-05-14T19:31:59.804Z,32.92
2023-05-14T19:37:03.186Z,33.67
2023-05-14T19:42:06.494Z,33.93
2023-05-14T19:47:09.283Z,32.99
2023-05-14T19:52:11.976Z,34.22
2023-05-14T19:57:14.604Z,33.36
2023-05-14T20:02:18.599Z,34.32
2023-05-14T20:07:21.465Z,33.91
2023-05-14T20:12:24.051Z,34.52
2023-05-14T20:17:26.870Z,34.75
2023-05-14T20:22:29.499Z,35.48
2023-05-14T20:27:32.676Z,38.05
2023-05-14T20:32:35.585Z,43.60
2023-05-14T20:37:39.041Z,44.08
2023-05-14T20:42:41.621Z,40.50
2023-05-14T20:47:44.559Z,45.81
2023-05-14T20:52:47.320Z,46.19
2023-05-14T20:57:49.898Z,44.22
2023-05-14T21:02:53.082Z,49.11
2023-05-14T21:07:55.772Z,48.24
2023-05-14T21:12:58.385Z,47.24
2023-05-14T21:18:02.180Z,48.28
2023-05-14T21:23:04.984Z,49.65
2023-05-14T21:28:07.811Z,45.99
2023-05-14T21:33:10.401Z,44.34
2023-05-14T21:38:13.001Z,47.67
2023-05-14T21:43:15.646Z,50.88
2023-05-14T21:48:18.424Z,48.89
2023-05-14T21:53:21.130Z,46.40
2023-05-14T21:58:23.911Z,45.93
2023-05-14T22:03:26.719Z,46.17
2023-05-14T22:08:30.726Z,46.31
2023-05-14T22:13:35.071Z,47.00
2023-05-14T22:18:38.357Z,46.23
2023-05-14T22:23:41.074Z,48.09
2023-05-14T22:28:43.697Z,47.47
2023-05-14T22:33:46.358Z,49.08
2023-05-14T22:38:48.926Z,48.27
2023-05-14T22:43:51.697Z,52.75
2023-05-14T22:48:54.558Z,53.92
2023-05-14T22:53:57.715Z,54.88
2023-05-14T22:59:00.683Z,50.61
2023-05-14T23:04:03.386Z,49.01
2023-05-14T23:09:06.057Z,51.09
2023-05-14T23:14:09.057Z,57.19
2023-05-14T23:19:12.337Z,54.87
2023-05-14T23:24:15.411Z,52.00
2023-05-14T23:29:18.075Z,54.58
2023-05-14T23:34:22.124Z,55.45
2023-05-14T23:39:24.749Z,57.54
2023-05-14T23:44:27.486Z,59.34
2023-05-14T23:49:30.116Z,60.63
2023-05-14T23:54:32.735Z,59.15
2023-05-14T23:59:35.529Z,55.32
